Curima, Brazil

8:27 AM -03 on April 26, 2017 (GMT -0300)
Augusto Severo International | | Change Station

Elev 171 ft 5.92 °S, 35.25 °W | Updated 27 minutes ago

Partly Cloudy
Partly Cloudy
82 °F
Feels Like 88 °F
N
10
Wind Variable Wind from SSE

Today
High -- | Low -- °F
--% Chance of Precip.
Yesterday
High -- | Low -- °F
Precip. -- in
Pressure 29.92 in
Visibility 6.2 miles
Clouds Few 2300 ft
Heat Index 88 °F
Dew Point 73 °F
Humidity 74%
Rainfall 0.00 in
Snow Depth Not available.
5:23 AM 5:18 PM
Waning Crescent, 0% visible
METAR SBNT 261100Z 16009KT 9999 FEW023 28/23 Q1013
Pressure 29.92 in
Visibility 6.2 miles
Clouds Few 2300 ft
Heat Index 88 °F
Dew Point 73 °F
Humidity 74%
Rainfall 0.00 in
Snow Depth Not available.
5:23 AM 5:18 PM
Waning Crescent, 0% visible
METAR SBNT 261100Z 16009KT 9999 FEW023 28/23 Q1013

Get Severe Weather Alerts

Thanks for signing up!

Be on the lookout for a verification email in your inbox.

You'll start receiving the daily forecast at 8 AM.

×

10-Day Weather Forecast

No radar image for this location.
×

Almanac

Astronomy

Apr. 26, 2017 Rise Set
Actual Time
Civil Twilight
Nautical Twilight
Astronomical Twilight
Moon
Length of Visible Light
Length of Day
Tomorrow will be .
, % of the Moon is Illuminated

Today's Extremes

Country Highs Country Lows

Community

WunderPhotos

WunderBlog® & News

Nearby

Air Quality

  Air Quality AQ Index Pollutant
Not available.

Snow Depth

Station Depth Elevation

Earthquake Activity

City Distance Mag. Time & Date
Minimum magnitude displayed is 2.5.

Coastal Water Temperatures

Place Temperature

Stations

Nearby Weather Stations

Station Location Temp. Windchill Dew Point Humidity Wind Precip. Elev Updated Type